Time;durP1;ratioP1;P1;durP2;ratioP2;P2;SDS_P1;SDS_P2;PMS_P1;PMS_P2;Temp;Humidity;BMP_temperature;BMP_pressure;BME280_temperature;BME280_humidity;BME280_pressure;Samples;Min_cycle;Max_cycle;Signal;HPM_P1;HPM_P2
2022/06/01 00:01:04;;;;;;;;;;;23.20;41.20;;;;;;6352726;27;19923;-54
2022/06/01 00:04:05;;;;;;;;;;;23.70;41.40;;;;;;6353191;27;19938;-55
2022/06/01 00:07:07;;;;;;;;;;;23.10;41.40;;;;;;6353473;27;20072;-56
2022/06/01 00:10:09;;;;;;;;;;;23.30;41.30;;;;;;6337712;27;19934;-56
2022/06/01 00:13:10;;;;;;;;;;;23.20;41.10;;;;;;6353366;27;19938;-57
2022/06/01 00:16:12;;;;;;;;;;;23.50;41.50;;;;;;6352959;27;19935;-57
2022/06/01 00:19:13;;;;;;;;;;;23.10;41.10;;;;;;6354608;27;19948;-54
2022/06/01 00:22:15;;;;;;;;;;;23.20;41.30;;;;;;6350973;27;21791;-57
2022/06/01 00:25:18;;;;;;;;;;;23.80;41.60;;;;;;6350071;27;19930;-56
2022/06/01 00:28:19;;;;;;;;;;;23.30;41.50;;;;;;6339606;27;20793;-56
2022/06/01 00:31:20;;;;;;;;;;;23.70;41.70;;;;;;6355521;27;19962;-55
2022/06/01 00:34:22;;;;;;;;;;;23.30;41.40;;;;;;6336596;27;19931;-56
2022/06/01 00:37:23;;;;;;;;;;;23.50;41.60;;;;;;6357715;27;19937;-56
2022/06/01 00:40:26;;;;;;;;;;;23.20;41.40;;;;;;6359104;27;21278;-55
2022/06/01 00:43:36;;;;;;;;;;;24.20;41.90;;;;;;6352651;27;19957;-53
2022/06/01 00:46:38;;;;;;;;;;;23.20;41.40;;;;;;6331891;27;20801;-53
2022/06/01 00:49:41;;;;;;;;;;;23.00;41.30;;;;;;6348030;27;20137;-53
2022/06/01 00:52:46;;;;;;;;;;;23.70;41.80;;;;;;6346942;27;20050;-55
2022/06/01 00:55:50;;;;;;;;;;;23.00;41.40;;;;;;6347609;27;19942;-55
2022/06/01 00:58:55;;;;;;;;;;;23.10;41.60;;;;;;6346985;27;19954;-53
2022/06/01 01:01:56;;;;;;;;;;;23.40;41.70;;;;;;6336919;27;20065;-57
2022/06/01 01:04:58;;;;;;;;;;;23.30;41.70;;;;;;6344071;27;19931;-54
2022/06/01 01:08:01;;;;;;;;;;;23.00;41.60;;;;;;6346338;27;20142;-55
2022/06/01 01:11:03;;;;;;;;;;;23.20;41.60;;;;;;6341861;27;19926;-56
2022/06/01 01:14:06;;;;;;;;;;;23.40;41.50;;;;;;6343648;27;20665;-55
2022/06/01 01:17:08;;;;;;;;;;;23.10;41.40;;;;;;6345807;27;20533;-55
2022/06/01 01:20:10;;;;;;;;;;;22.80;41.50;;;;;;6347339;27;19931;-56
2022/06/01 01:23:17;;;;;;;;;;;23.30;41.70;;;;;;6347579;27;20206;-53
2022/06/01 01:26:19;;;;;;;;;;;22.90;41.50;;;;;;6349690;27;20267;-55
2022/06/01 01:29:30;;;;;;;;;;;23.40;41.90;;;;;;6347515;27;20014;-57
2022/06/01 01:32:31;;;;;;;;;;;23.10;41.60;;;;;;6327112;27;20140;-56
2022/06/01 01:35:32;;;;;;;;;;;23.30;41.90;;;;;;6347509;27;20008;-55
2022/06/01 01:38:37;;;;;;;;;;;23.40;42.00;;;;;;6350264;27;19926;-54
2022/06/01 01:41:40;;;;;;;;;;;23.10;41.60;;;;;;6345399;27;20055;-57
2022/06/01 01:44:45;;;;;;;;;;;23.40;41.80;;;;;;6304806;27;19927;-57
2022/06/01 01:47:47;;;;;;;;;;;23.10;41.60;;;;;;6324967;27;20341;-56
2022/06/01 01:50:49;;;;;;;;;;;23.30;41.90;;;;;;6324251;27;20049;-56
2022/06/01 01:53:51;;;;;;;;;;;23.40;42.00;;;;;;6343637;27;20832;-52
2022/06/01 01:57:05;;;;;;;;;;;23.10;41.60;;;;;;6325952;27;20236;-56
2022/06/01 02:00:09;;;;;;;;;;;23.10;41.70;;;;;;6344125;27;19958;-53
2022/06/01 02:03:13;;;;;;;;;;;23.10;41.40;;;;;;6342596;27;20683;-54
2022/06/01 02:06:25;;;;;;;;;;;23.30;41.80;;;;;;6324745;27;20257;-55
2022/06/01 02:12:40;;;;;;;;;;;23.20;41.70;;;;;;6329358;27;20441;-54
2022/06/01 02:12:49;;;;;;;;;;;22.90;41.50;;;;;;6326190;27;19963;-55
2022/06/01 02:15:53;;;;;;;;;;;23.30;41.70;;;;;;6340649;27;20289;-51
2022/06/01 02:18:55;;;;;;;;;;;23.30;41.70;;;;;;6344972;27;20109;-54
2022/06/01 02:21:59;;;;;;;;;;;22.90;41.60;;;;;;6325036;27;20042;-56
2022/06/01 02:25:01;;;;;;;;;;;23.10;41.60;;;;;;6340058;27;20182;-51
2022/06/01 02:28:03;;;;;;;;;;;23.10;41.50;;;;;;6342587;27;19927;-54
2022/06/01 02:31:05;;;;;;;;;;;23.60;41.90;;;;;;6344627;27;20131;-56
2022/06/01 02:34:07;;;;;;;;;;;22.90;41.70;;;;;;6348472;27;19986;-54
2022/06/01 02:37:09;;;;;;;;;;;23.60;41.90;;;;;;6347112;27;20171;-56
2022/06/01 02:40:13;;;;;;;;;;;23.30;41.90;;;;;;6349460;27;19941;-55
2022/06/01 02:43:15;;;;;;;;;;;23.10;41.80;;;;;;6344094;27;19938;-53
2022/06/01 02:46:16;;;;;;;;;;;22.90;41.80;;;;;;6344637;27;20037;-54
2022/06/01 02:49:17;;;;;;;;;;;23.30;42.00;;;;;;6347370;27;20203;-54
2022/06/01 02:52:19;;;;;;;;;;;22.90;41.80;;;;;;6345512;27;20252;-55
2022/06/01 02:55:21;;;;;;;;;;;22.60;41.70;;;;;;6342356;27;19927;-53
2022/06/01 02:58:23;;;;;;;;;;;22.80;41.70;;;;;;6324069;27;19957;-52
2022/06/01 03:01:24;;;;;;;;;;;23.10;41.90;;;;;;6341648;27;19932;-52
2022/06/01 03:04:27;;;;;;;;;;;23.50;42.20;;;;;;6333703;27;19938;-53
2022/06/01 03:07:34;;;;;;;;;;;23.20;41.90;;;;;;6327692;27;20042;-53
2022/06/01 03:10:35;;;;;;;;;;;23.00;41.70;;;;;;6342391;27;20550;-55
2022/06/01 03:13:37;;;;;;;;;;;23.40;42.10;;;;;;6339057;27;20634;-54
2022/06/01 03:16:38;;;;;;;;;;;23.00;41.90;;;;;;6339569;27;19973;-55
2022/06/01 03:19:40;;;;;;;;;;;22.80;41.90;;;;;;6351716;27;19991;-55
2022/06/01 03:22:41;;;;;;;;;;;23.00;42.00;;;;;;6354070;27;20891;-54
2022/06/01 03:25:42;;;;;;;;;;;23.40;42.10;;;;;;6343925;27;19992;-55
2022/06/01 03:28:44;;;;;;;;;;;22.80;41.70;;;;;;6345720;27;19927;-52
2022/06/01 03:31:46;;;;;;;;;;;22.90;41.90;;;;;;6343326;27;20395;-53
2022/06/01 03:34:47;;;;;;;;;;;22.90;42.00;;;;;;6342287;27;20325;-53
2022/06/01 03:37:49;;;;;;;;;;;22.70;41.90;;;;;;6343795;27;20133;-54
2022/06/01 03:40:50;;;;;;;;;;;22.90;41.90;;;;;;6324191;27;20261;-54
2022/06/01 03:47:09;;;;;;;;;;;22.90;42.00;;;;;;6346174;27;19931;-55
2022/06/01 03:50:11;;;;;;;;;;;23.00;41.90;;;;;;6343516;27;19970;-52
2022/06/01 03:53:14;;;;;;;;;;;23.10;41.90;;;;;;6358931;27;20726;-55
2022/06/01 03:56:16;;;;;;;;;;;23.30;42.20;;;;;;6359592;27;20063;-54
2022/06/01 03:59:18;;;;;;;;;;;22.60;41.90;;;;;;6359004;27;20871;-55
2022/06/01 04:02:19;;;;;;;;;;;23.00;42.10;;;;;;6346797;27;20261;-56
2022/06/01 04:05:21;;;;;;;;;;;22.70;42.00;;;;;;6340369;27;20304;-55
2022/06/01 04:08:23;;;;;;;;;;;22.80;42.10;;;;;;6343056;27;20262;-53
2022/06/01 04:11:24;;;;;;;;;;;23.30;42.30;;;;;;6344081;27;19927;-53
2022/06/01 04:14:27;;;;;;;;;;;22.90;42.20;;;;;;6343687;27;20723;-56
2022/06/01 04:17:28;;;;;;;;;;;23.20;42.20;;;;;;6332674;27;20041;-54
2022/06/01 04:20:30;;;;;;;;;;;22.60;41.90;;;;;;6354338;27;19930;-54
2022/06/01 04:23:32;;;;;;;;;;;22.50;42.00;;;;;;6352299;27;20755;-54
2022/06/01 04:26:34;;;;;;;;;;;23.20;42.20;;;;;;6354930;27;20118;-52
2022/06/01 04:29:37;;;;;;;;;;;23.00;42.40;;;;;;6353111;27;19927;-52
2022/06/01 04:32:38;;;;;;;;;;;23.00;42.30;;;;;;6333657;27;19931;-55
2022/06/01 04:35:40;;;;;;;;;;;22.60;41.90;;;;;;6352948;27;20759;-57
2022/06/01 04:38:41;;;;;;;;;;;23.70;42.70;;;;;;6351994;27;19931;-54
2022/06/01 04:41:42;;;;;;;;;;;22.70;42.20;;;;;;6357289;27;20049;-56
2022/06/01 04:44:45;;;;;;;;;;;22.60;42.10;;;;;;6358133;27;19935;-55
2022/06/01 04:47:46;;;;;;;;;;;22.90;42.20;;;;;;6344324;27;20001;-55
2022/06/01 04:50:48;;;;;;;;;;;23.20;42.30;;;;;;6356850;27;19927;-51
2022/06/01 04:53:49;;;;;;;;;;;23.20;42.50;;;;;;6356526;27;20034;-52
2022/06/01 04:56:51;;;;;;;;;;;22.80;42.30;;;;;;6355342;27;19926;-54
2022/06/01 04:59:53;;;;;;;;;;;23.00;42.40;;;;;;6351548;27;19977;-53
2022/06/01 05:02:54;;;;;;;;;;;22.80;42.20;;;;;;6335979;27;19930;-53
2022/06/01 05:05:55;;;;;;;;;;;22.40;42.10;;;;;;6354736;27;19935;-53
2022/06/01 05:08:57;;;;;;;;;;;22.60;42.90;;;;;;6354618;27;20129;-53
2022/06/01 05:11:58;;;;;;;;;;;22.80;42.50;;;;;;6356395;27;19977;-56
2022/06/01 05:15:00;;;;;;;;;;;22.30;42.00;;;;;;6355270;27;19935;-56
2022/06/01 05:18:02;;;;;;;;;;;22.50;42.20;;;;;;6330159;27;20690;-55
2022/06/01 05:21:04;;;;;;;;;;;22.80;42.40;;;;;;6339079;27;20057;-51
2022/06/01 05:24:06;;;;;;;;;;;23.00;42.60;;;;;;6354553;27;20049;-53
2022/06/01 05:27:07;;;;;;;;;;;22.90;42.30;;;;;;6345624;27;19927;-53
2022/06/01 05:30:10;;;;;;;;;;;22.40;42.20;;;;;;6337050;27;20072;-52
2022/06/01 05:33:12;;;;;;;;;;;24.00;43.40;;;;;;6341560;27;20037;-55
2022/06/01 05:36:14;;;;;;;;;;;22.60;42.20;;;;;;6354564;27;20047;-56
2022/06/01 05:39:16;;;;;;;;;;;22.80;42.40;;;;;;6334756;27;19966;-52
2022/06/01 05:42:18;;;;;;;;;;;22.90;42.50;;;;;;6338008;27;20604;-53
2022/06/01 05:45:19;;;;;;;;;;;22.90;42.40;;;;;;6334900;27;19938;-54
2022/06/01 05:48:21;;;;;;;;;;;23.00;42.50;;;;;;6329179;27;21203;-53
2022/06/01 05:51:23;;;;;;;;;;;22.90;42.50;;;;;;6324145;27;20550;-56
2022/06/01 05:54:24;;;;;;;;;;;22.80;42.20;;;;;;6335000;27;19931;-52
2022/06/01 05:57:26;;;;;;;;;;;22.90;42.40;;;;;;6344010;27;20255;-54
2022/06/01 06:00:28;;;;;;;;;;;22.90;42.50;;;;;;6340040;27;19934;-53
2022/06/01 06:03:30;;;;;;;;;;;23.10;42.60;;;;;;6338767;27;19927;-54
2022/06/01 06:06:33;;;;;;;;;;;22.90;42.30;;;;;;6317040;27;19945;-57
2022/06/01 06:09:34;;;;;;;;;;;22.90;42.20;;;;;;6334873;27;19934;-54
2022/06/01 06:12:35;;;;;;;;;;;23.10;42.50;;;;;;6328199;27;19938;-52
2022/06/01 06:15:37;;;;;;;;;;;22.80;42.30;;;;;;6335768;27;19937;-55
2022/06/01 06:18:38;;;;;;;;;;;23.10;42.40;;;;;;6326815;27;19931;-55
2022/06/01 06:21:40;;;;;;;;;;;23.00;42.40;;;;;;6332151;27;19960;-54
2022/06/01 06:24:42;;;;;;;;;;;23.00;42.20;;;;;;6309962;27;21409;-57
2022/06/01 06:27:43;;;;;;;;;;;22.90;42.30;;;;;;6302337;27;19931;-54
2022/06/01 06:30:45;;;;;;;;;;;22.90;42.20;;;;;;6312573;27;19931;-56
2022/06/01 06:33:47;;;;;;;;;;;22.90;42.20;;;;;;6309502;27;19937;-58
2022/06/01 06:36:48;;;;;;;;;;;23.00;42.20;;;;;;6310195;27;20831;-57
2022/06/01 06:39:49;;;;;;;;;;;23.00;42.20;;;;;;6300761;27;19934;-54
2022/06/01 06:42:52;;;;;;;;;;;23.00;42.30;;;;;;6293247;27;19937;-55
2022/06/01 06:45:57;;;;;;;;;;;23.00;42.10;;;;;;6280481;27;19930;-58
2022/06/01 06:49:00;;;;;;;;;;;23.10;42.10;;;;;;6257411;27;22700;-58
2022/06/01 06:52:09;;;;;;;;;;;23.00;42.20;;;;;;6217496;27;19931;-59
2022/06/01 06:55:10;;;;;;;;;;;23.20;42.20;;;;;;6187581;27;20010;-55
2022/06/01 06:58:12;;;;;;;;;;;23.00;42.20;;;;;;6203796;27;19931;-56
2022/06/01 07:01:14;;;;;;;;;;;23.00;42.10;;;;;;6197934;27;20269;-56
2022/06/01 07:04:15;;;;;;;;;;;23.10;42.00;;;;;;6143034;27;20129;-52
2022/06/01 07:07:17;;;;;;;;;;;21.70;41.30;;;;;;6152185;27;19985;-54
2022/06/01 07:10:18;;;;;;;;;;;23.00;42.20;;;;;;6162567;27;19939;-54
2022/06/01 07:13:20;;;;;;;;;;;23.10;42.20;;;;;;6168293;27;20392;-56
2022/06/01 07:16:24;;;;;;;;;;;23.20;42.20;;;;;;6096318;27;20065;-56
2022/06/01 07:19:26;;;;;;;;;;;22.80;42.00;;;;;;6102531;27;19938;-55
2022/06/01 07:22:28;;;;;;;;;;;23.00;42.00;;;;;;6144359;27;19931;-55
2022/06/01 07:25:29;;;;;;;;;;;22.80;41.90;;;;;;6167049;27;19937;-53
2022/06/01 07:28:30;;;;;;;;;;;23.20;42.20;;;;;;6145650;27;19931;-60
2022/06/01 07:31:33;;;;;;;;;;;24.90;43.00;;;;;;6087474;27;21094;-60
2022/06/01 07:34:35;;;;;;;;;;;23.50;42.20;;;;;;6086520;27;19931;-56
2022/06/01 07:44:13;;;;;;;;;;;23.20;42.10;;;;;;6131065;27;20018;-56
2022/06/01 07:47:16;;;;;;;;;;;23.30;42.10;;;;;;6132469;27;20012;-54
2022/06/01 07:50:37;;;;;;;;;;;22.90;41.90;;;;;;6107337;27;20023;-56
2022/06/01 07:53:48;;;;;;;;;;;23.30;42.30;;;;;;6102522;27;19934;-56
2022/06/01 08:00:16;;;;;;;;;;;23.10;41.50;;;;;;6088857;27;19953;-57
2022/06/01 08:03:20;;;;;;;;;;;22.90;42.00;;;;;;6089428;27;19931;-57
2022/06/01 08:06:22;;;;;;;;;;;23.20;42.10;;;;;;6096816;27;23823;-53
2022/06/01 08:09:44;;;;;;;;;;;23.10;41.90;;;;;;6089482;27;23291;-59
2022/06/01 08:16:00;;;;;;;;;;;23.10;41.90;;;;;;6101806;27;20552;-56
2022/06/01 08:19:02;;;;;;;;;;;23.00;42.10;;;;;;6130383;27;20534;-58
2022/06/01 08:22:04;;;;;;;;;;;23.20;42.10;;;;;;6138199;27;19938;-57
2022/06/01 08:25:06;;;;;;;;;;;23.40;42.20;;;;;;6160741;27;19935;-52
2022/06/01 08:28:08;;;;;;;;;;;22.70;41.80;;;;;;6148195;27;20019;-52
2022/06/01 08:31:09;;;;;;;;;;;23.30;42.30;;;;;;6135234;27;19931;-59
2022/06/01 08:34:15;;;;;;;;;;;23.40;42.00;;;;;;6136950;27;21258;-56
2022/06/01 08:37:16;;;;;;;;;;;23.30;42.10;;;;;;6087431;27;20703;-56
2022/06/01 08:40:20;;;;;;;;;;;23.00;41.80;;;;;;6116624;27;20179;-58
2022/06/01 08:43:23;;;;;;;;;;;23.10;42.00;;;;;;6120592;27;19979;-57
2022/06/01 08:46:26;;;;;;;;;;;22.80;41.80;;;;;;6119052;27;19938;-57
2022/06/01 08:49:30;;;;;;;;;;;23.30;42.20;;;;;;6120031;27;20043;-58
2022/06/01 08:52:31;;;;;;;;;;;23.00;41.90;;;;;;6097844;27;19967;-57
2022/06/01 08:55:43;;;;;;;;;;;23.20;42.20;;;;;;6146826;27;20766;-58
2022/06/01 08:58:48;;;;;;;;;;;23.40;42.20;;;;;;6068117;27;19957;-58
2022/06/01 09:01:54;;;;;;;;;;;23.40;42.10;;;;;;6090928;27;20073;-58
2022/06/01 09:05:00;;;;;;;;;;;23.30;42.30;;;;;;6078225;27;19931;-56
2022/06/01 09:08:05;;;;;;;;;;;23.40;42.10;;;;;;6105913;27;21587;-56
2022/06/01 09:11:08;;;;;;;;;;;23.10;42.10;;;;;;6095156;27;19931;-57
2022/06/01 09:14:11;;;;;;;;;;;23.10;42.30;;;;;;6091102;27;20086;-58
2022/06/01 09:17:12;;;;;;;;;;;23.00;41.90;;;;;;6121807;27;19931;-54
2022/06/01 09:23:29;;;;;;;;;;;23.30;42.10;;;;;;6166027;27;19931;-50
2022/06/01 09:26:31;;;;;;;;;;;23.40;42.20;;;;;;6150528;27;19931;-56
2022/06/01 09:29:34;;;;;;;;;;;23.30;42.10;;;;;;6144040;27;19931;-56
2022/06/01 09:32:40;;;;;;;;;;;23.10;42.20;;;;;;6119925;27;19938;-53
2022/06/01 09:35:43;;;;;;;;;;;23.90;42.50;;;;;;6111760;27;19937;-58
2022/06/01 09:38:48;;;;;;;;;;;23.00;42.00;;;;;;6091786;27;19931;-59
2022/06/01 09:41:50;;;;;;;;;;;23.10;41.90;;;;;;6121423;27;19937;-55
2022/06/01 09:44:52;;;;;;;;;;;23.50;42.20;;;;;;6102144;27;19930;-55
2022/06/01 09:47:54;;;;;;;;;;;23.50;42.10;;;;;;6133601;27;20053;-56
2022/06/01 09:51:09;;;;;;;;;;;23.40;41.80;;;;;;6143224;27;19931;-60
2022/06/01 09:54:24;;;;;;;;;;;23.20;41.80;;;;;;6167408;27;19978;-58
2022/06/01 09:57:27;;;;;;;;;;;23.40;41.00;;;;;;6153262;27;20152;-59
2022/06/01 10:07:06;;;;;;;;;;;23.30;41.70;;;;;;6143331;27;20061;-52
2022/06/01 10:10:18;;;;;;;;;;;23.50;41.80;;;;;;6110354;27;22609;-54
2022/06/01 10:13:26;;;;;;;;;;;24.00;42.10;;;;;;6140013;27;23595;-55
2022/06/01 10:16:31;;;;;;;;;;;23.40;41.60;;;;;;6114344;27;21579;-50
2022/06/01 10:19:34;;;;;;;;;;;23.50;41.70;;;;;;6190677;27;20739;-50
2022/06/01 10:22:40;;;;;;;;;;;23.80;41.60;;;;;;6183572;27;20027;-50
2022/06/01 10:25:43;;;;;;;;;;;23.90;42.00;;;;;;6163938;27;19934;-54
2022/06/01 10:28:46;;;;;;;;;;;23.70;41.40;;;;;;6191704;27;19953;-56
2022/06/01 10:31:50;;;;;;;;;;;23.70;41.30;;;;;;6205503;27;19934;-52
2022/06/01 10:34:53;;;;;;;;;;;23.60;41.20;;;;;;6193273;27;19996;-53
2022/06/01 10:37:59;;;;;;;;;;;23.70;41.30;;;;;;6217373;27;19938;-50
2022/06/01 10:41:03;;;;;;;;;;;23.60;41.30;;;;;;6227509;27;20041;-54
2022/06/01 10:44:12;;;;;;;;;;;23.80;41.30;;;;;;6222507;27;23642;-52
2022/06/01 10:47:17;;;;;;;;;;;23.70;41.20;;;;;;6223305;27;21518;-55
2022/06/01 10:50:20;;;;;;;;;;;23.80;41.20;;;;;;6234551;27;20815;-58
2022/06/01 10:53:40;;;;;;;;;;;23.50;41.00;;;;;;6218905;27;19979;-53
2022/06/01 10:56:42;;;;;;;;;;;23.80;41.20;;;;;;6240284;27;19938;-49
2022/06/01 10:59:43;;;;;;;;;;;23.80;41.20;;;;;;6232989;27;20890;-53
2022/06/01 11:03:00;;;;;;;;;;;23.80;41.10;;;;;;6220253;27;19958;-53
2022/06/01 11:06:10;;;;;;;;;;;23.80;41.00;;;;;;6248114;27;19930;-52
2022/06/01 11:09:16;;;;;;;;;;;23.90;41.10;;;;;;6226911;27;19938;-53
2022/06/01 11:12:25;;;;;;;;;;;23.70;40.90;;;;;;6249615;27;19974;-51
2022/06/01 11:15:34;;;;;;;;;;;24.00;41.00;;;;;;6260969;27;19962;-54
2022/06/01 11:18:43;;;;;;;;;;;24.00;41.00;;;;;;6264907;27;19937;-52
2022/06/01 11:21:49;;;;;;;;;;;23.90;40.90;;;;;;6235138;27;19938;-54
2022/06/01 11:24:55;;;;;;;;;;;23.50;40.70;;;;;;6263014;27;20045;-53
2022/06/01 11:28:02;;;;;;;;;;;23.90;40.80;;;;;;6261407;27;19931;-53
2022/06/01 11:31:08;;;;;;;;;;;24.10;40.90;;;;;;6277085;27;20069;-55
2022/06/01 11:34:12;;;;;;;;;;;23.80;40.70;;;;;;6257802;27;19938;-50
2022/06/01 11:37:16;;;;;;;;;;;24.20;41.00;;;;;;6252295;27;24398;-55
2022/06/01 11:40:22;;;;;;;;;;;23.90;40.80;;;;;;6232684;27;19931;-51
2022/06/01 11:43:27;;;;;;;;;;;24.20;40.90;;;;;;6248268;27;19984;-56
2022/06/01 11:46:38;;;;;;;;;;;24.10;41.00;;;;;;6226756;27;19930;-55
2022/06/01 11:49:40;;;;;;;;;;;24.10;40.90;;;;;;6188572;27;19937;-57
2022/06/01 11:52:44;;;;;;;;;;;24.20;40.90;;;;;;6188009;27;19976;-56
2022/06/01 11:55:49;;;;;;;;;;;24.20;41.70;;;;;;6201969;27;19931;-57
2022/06/01 11:59:14;;;;;;;;;;;23.70;40.60;;;;;;6179611;27;21572;-58
2022/06/01 12:02:18;;;;;;;;;;;24.00;40.80;;;;;;6108062;27;23880;-54
2022/06/01 12:05:22;;;;;;;;;;;24.60;41.10;;;;;;6148358;27;19930;-55
2022/06/01 12:08:29;;;;;;;;;;;24.00;40.60;;;;;;6161065;27;20070;-56
2022/06/01 12:11:46;;;;;;;;;;;24.10;40.70;;;;;;6124460;27;19938;-57
2022/06/01 12:14:56;;;;;;;;;;;24.30;40.70;;;;;;6171672;27;19988;-54
2022/06/01 12:17:59;;;;;;;;;;;24.30;40.80;;;;;;6138009;27;19931;-57
2022/06/01 12:21:15;;;;;;;;;;;23.50;40.20;;;;;;6170630;27;19930;-57
2022/06/01 12:31:30;;;;;;;;;;;24.40;40.60;;;;;;6166601;27;19931;-58
2022/06/01 12:34:35;;;;;;;;;;;24.40;40.70;;;;;;6184850;27;19931;-58
2022/06/01 12:37:39;;;;;;;;;;;24.40;40.60;;;;;;6173720;27;20010;-54
2022/06/01 12:40:52;;;;;;;;;;;24.30;40.50;;;;;;6180289;27;20045;-57
2022/06/01 12:43:58;;;;;;;;;;;24.40;40.40;;;;;;6171307;27;19938;-54
2022/06/01 12:47:01;;;;;;;;;;;24.40;40.50;;;;;;6188823;27;21444;-55
2022/06/01 12:50:07;;;;;;;;;;;24.50;40.60;;;;;;6159671;27;19931;-58
2022/06/01 12:53:11;;;;;;;;;;;24.30;40.40;;;;;;6176642;27;19982;-55
2022/06/01 12:56:15;;;;;;;;;;;24.50;41.30;;;;;;6192487;27;20338;-57
2022/06/01 12:59:18;;;;;;;;;;;24.30;40.50;;;;;;6171180;27;20045;-52
2022/06/01 13:02:20;;;;;;;;;;;24.20;40.60;;;;;;6187317;27;19958;-60
2022/06/01 13:05:23;;;;;;;;;;;24.10;40.60;;;;;;6184913;27;19947;-56
2022/06/01 13:08:28;;;;;;;;;;;24.20;40.40;;;;;;6139172;27;22632;-57
2022/06/01 13:11:33;;;;;;;;;;;24.50;40.60;;;;;;6169547;27;19937;-54
2022/06/01 13:14:36;;;;;;;;;;;24.10;40.70;;;;;;6179203;27;20470;-56
2022/06/01 13:17:46;;;;;;;;;;;24.40;40.50;;;;;;6190346;27;19937;-57
2022/06/01 13:20:54;;;;;;;;;;;24.50;40.60;;;;;;6191251;27;21522;-57
2022/06/01 13:24:21;;;;;;;;;;;24.50;40.60;;;;;;6172325;27;19938;-56
2022/06/01 13:27:22;;;;;;;;;;;24.20;40.20;;;;;;6184166;27;19931;-54
2022/06/01 13:30:25;;;;;;;;;;;24.20;40.50;;;;;;6174857;27;19938;-54
2022/06/01 13:33:31;;;;;;;;;;;24.00;40.40;;;;;;6179876;27;19939;-55
2022/06/01 13:36:37;;;;;;;;;;;23.70;40.30;;;;;;6154394;27;20870;-56
2022/06/01 13:39:41;;;;;;;;;;;24.40;40.60;;;;;;6165917;27;19934;-56
2022/06/01 13:43:15;;;;;;;;;;;24.20;40.40;;;;;;6163249;27;20422;-57
2022/06/01 13:46:17;;;;;;;;;;;24.40;40.50;;;;;;6197829;27;19938;-60
2022/06/01 13:49:25;;;;;;;;;;;24.50;40.80;;;;;;6192948;27;20003;-57
2022/06/01 13:52:26;;;;;;;;;;;24.30;40.50;;;;;;6194220;27;19938;-57
2022/06/01 13:55:33;;;;;;;;;;;23.90;40.40;;;;;;6170963;27;19931;-56
2022/06/01 13:58:37;;;;;;;;;;;24.30;40.70;;;;;;6196083;27;20959;-57
2022/06/01 14:01:40;;;;;;;;;;;24.40;40.60;;;;;;6148294;27;19931;-54
2022/06/01 14:04:43;;;;;;;;;;;24.20;40.60;;;;;;6143865;27;19930;-57
2022/06/01 14:07:48;;;;;;;;;;;24.40;40.60;;;;;;6119801;27;20081;-57
2022/06/01 14:10:50;;;;;;;;;;;24.50;40.70;;;;;;6151487;27;19979;-54
2022/06/01 14:13:52;;;;;;;;;;;23.90;40.20;;;;;;6135029;27;19931;-55
2022/06/01 14:16:54;;;;;;;;;;;24.50;40.50;;;;;;6161393;27;20418;-56
2022/06/01 14:19:59;;;;;;;;;;;24.50;40.40;;;;;;6176724;27;20010;-55
2022/06/01 14:23:04;;;;;;;;;;;24.30;40.30;;;;;;6168710;27;19934;-57
2022/06/01 14:29:19;;;;;;;;;;;24.50;40.40;;;;;;6200544;27;19931;-55
2022/06/01 14:32:21;;;;;;;;;;;24.80;40.70;;;;;;6183308;27;21135;-54
2022/06/01 14:35:23;;;;;;;;;;;24.70;40.60;;;;;;6183755;27;19931;-55
2022/06/01 14:38:25;;;;;;;;;;;24.50;40.40;;;;;;6188672;27;19931;-53
2022/06/01 14:41:28;;;;;;;;;;;24.30;40.40;;;;;;6160731;27;19931;-51
2022/06/01 14:44:30;;;;;;;;;;;24.50;40.50;;;;;;6202383;27;19931;-52
2022/06/01 14:47:32;;;;;;;;;;;24.30;40.40;;;;;;6182180;27;20813;-54
2022/06/01 14:51:01;;;;;;;;;;;24.50;40.40;;;;;;6195263;27;21135;-52
2022/06/01 14:54:04;;;;;;;;;;;24.50;40.40;;;;;;6206473;27;19931;-53
2022/06/01 14:57:06;;;;;;;;;;;24.60;40.40;;;;;;6181610;27;19935;-54
2022/06/01 15:00:09;;;;;;;;;;;24.30;40.40;;;;;;6180046;27;19931;-55
2022/06/01 15:03:10;;;;;;;;;;;24.60;40.50;;;;;;6193126;27;20112;-51
2022/06/01 15:06:13;;;;;;;;;;;24.50;40.40;;;;;;6187201;27;22012;-59
2022/06/01 15:13:07;;;;;;;;;;;24.10;40.20;;;;;;6202063;27;21551;-54
2022/06/01 15:16:09;;;;;;;;;;;24.20;40.30;;;;;;6203153;27;20132;-54
2022/06/01 15:19:11;;;;;;;;;;;24.30;40.40;;;;;;6192270;27;20073;-55
2022/06/01 15:22:14;;;;;;;;;;;24.00;40.10;;;;;;6187206;27;19931;-57
2022/06/01 15:25:15;;;;;;;;;;;24.30;40.30;;;;;;6176697;27;20008;-56
2022/06/01 15:28:16;;;;;;;;;;;24.20;40.30;;;;;;6172282;27;19937;-54
2022/06/01 15:41:06;;;;;;;;;;;24.40;40.40;;;;;;6196410;27;19937;-52
2022/06/01 15:44:07;;;;;;;;;;;24.30;40.40;;;;;;6204960;27;19937;-54
2022/06/01 15:47:14;;;;;;;;;;;24.50;40.50;;;;;;6211274;27;19938;-51
2022/06/01 15:50:17;;;;;;;;;;;24.40;40.10;;;;;;6203143;27;20028;-53
2022/06/01 15:53:20;;;;;;;;;;;24.10;40.20;;;;;;6159466;27;21199;-57
2022/06/01 15:56:21;;;;;;;;;;;24.70;40.40;;;;;;6210138;27;19931;-55
2022/06/01 15:59:22;;;;;;;;;;;24.80;40.60;;;;;;6169248;27;19937;-58
2022/06/01 16:02:25;;;;;;;;;;;24.70;40.60;;;;;;6209841;27;19931;-53
2022/06/01 16:05:27;;;;;;;;;;;24.60;40.40;;;;;;6213646;27;22772;-57
2022/06/01 16:08:29;;;;;;;;;;;24.60;40.50;;;;;;6226543;27;19970;-57
2022/06/01 16:11:31;;;;;;;;;;;24.50;40.40;;;;;;6247677;27;21656;-55
2022/06/01 16:14:32;;;;;;;;;;;24.60;40.30;;;;;;6241896;27;19938;-55
2022/06/01 16:17:36;;;;;;;;;;;24.70;40.60;;;;;;6250720;27;22464;-55
2022/06/01 16:20:37;;;;;;;;;;;24.50;40.50;;;;;;6265100;27;19930;-57
2022/06/01 16:23:39;;;;;;;;;;;24.50;40.50;;;;;;6260419;27;20057;-55
2022/06/01 16:26:41;;;;;;;;;;;24.60;40.60;;;;;;6280135;27;19931;-54
2022/06/01 16:29:44;;;;;;;;;;;24.00;40.30;;;;;;6290394;27;19938;-53
2022/06/01 16:32:47;;;;;;;;;;;24.70;40.60;;;;;;6262669;27;21086;-53
2022/06/01 16:35:48;;;;;;;;;;;24.50;40.50;;;;;;6297897;27;20015;-55
2022/06/01 16:38:50;;;;;;;;;;;24.60;40.50;;;;;;6305882;27;19966;-56
2022/06/01 16:41:51;;;;;;;;;;;24.30;40.30;;;;;;6309311;27;19931;-54
2022/06/01 16:44:53;;;;;;;;;;;24.50;40.60;;;;;;6308707;27;19937;-56
2022/06/01 16:47:55;;;;;;;;;;;24.50;40.50;;;;;;6301963;27;20029;-54
2022/06/01 16:50:56;;;;;;;;;;;24.60;40.60;;;;;;6297632;27;19946;-57
2022/06/01 16:53:58;;;;;;;;;;;24.40;40.50;;;;;;6316179;27;20053;-56
2022/06/01 16:57:00;;;;;;;;;;;24.60;40.50;;;;;;6310375;27;20293;-59
2022/06/01 17:00:01;;;;;;;;;;;24.40;40.40;;;;;;6309882;27;19931;-57
2022/06/01 17:03:02;;;;;;;;;;;24.50;40.40;;;;;;6313037;27;19934;-59
2022/06/01 17:06:05;;;;;;;;;;;24.50;40.40;;;;;;6318167;27;19938;-60
2022/06/01 17:09:07;;;;;;;;;;;24.40;40.30;;;;;;6315404;27;19973;-60
2022/06/01 17:12:09;;;;;;;;;;;24.50;40.30;;;;;;6294775;27;19930;-50
2022/06/01 17:15:12;;;;;;;;;;;24.70;40.40;;;;;;6300543;27;20045;-56
2022/06/01 17:18:14;;;;;;;;;;;24.40;40.30;;;;;;6301672;27;19931;-57
2022/06/01 17:21:16;;;;;;;;;;;24.60;40.50;;;;;;6318773;27;19927;-56
2022/06/01 17:24:19;;;;;;;;;;;24.60;40.50;;;;;;6314418;27;20682;-57
2022/06/01 17:27:20;;;;;;;;;;;24.50;40.40;;;;;;6333321;27;19938;-55
2022/06/01 17:30:22;;;;;;;;;;;24.50;40.50;;;;;;6334235;27;19937;-57
2022/06/01 17:33:26;;;;;;;;;;;24.60;40.50;;;;;;6335343;27;20894;-56
2022/06/01 17:36:28;;;;;;;;;;;24.80;40.60;;;;;;6317179;27;21203;-56
2022/06/01 17:39:31;;;;;;;;;;;24.50;40.40;;;;;;6324525;27;20820;-57
2022/06/01 17:42:32;;;;;;;;;;;24.40;40.30;;;;;;6330332;27;21744;-53
2022/06/01 17:45:36;;;;;;;;;;;24.60;40.40;;;;;;6332971;27;20796;-55
2022/06/01 17:48:40;;;;;;;;;;;24.90;40.50;;;;;;6320139;27;19973;-50
2022/06/01 17:51:41;;;;;;;;;;;24.40;40.20;;;;;;6335696;27;20081;-56
2022/06/01 17:54:43;;;;;;;;;;;24.50;40.30;;;;;;6342006;27;19930;-57
2022/06/01 17:57:45;;;;;;;;;;;24.70;40.40;;;;;;6342724;27;19938;-55
2022/06/01 18:00:47;;;;;;;;;;;24.50;40.30;;;;;;6324241;27;20025;-55
2022/06/01 18:03:48;;;;;;;;;;;24.50;40.30;;;;;;6338880;27;19938;-56
2022/06/01 18:06:50;;;;;;;;;;;24.70;40.40;;;;;;6336375;27;20790;-57
2022/06/01 18:09:52;;;;;;;;;;;24.60;40.30;;;;;;6339761;27;20338;-56
2022/06/01 18:12:54;;;;;;;;;;;24.60;40.30;;;;;;6341983;27;20056;-55
2022/06/01 18:15:55;;;;;;;;;;;24.70;40.30;;;;;;6344249;27;19926;-55
2022/06/01 18:18:57;;;;;;;;;;;24.70;40.40;;;;;;6343388;27;19923;-54
2022/06/01 18:21:59;;;;;;;;;;;24.60;40.30;;;;;;6337840;27;20848;-54
2022/06/01 18:25:01;;;;;;;;;;;24.50;40.20;;;;;;6337739;27;19923;-56
2022/06/01 18:28:03;;;;;;;;;;;24.50;40.20;;;;;;6344468;27;19964;-57
2022/06/01 18:31:06;;;;;;;;;;;24.60;40.20;;;;;;6335940;27;20047;-57
2022/06/01 18:34:07;;;;;;;;;;;24.30;40.10;;;;;;6314538;27;19937;-55
2022/06/01 18:37:08;;;;;;;;;;;24.70;40.30;;;;;;6345227;27;19978;-56